createdAt,value
2022-11-28T00:01:39.054Z,97.39
2022-11-28T00:04:07.704Z,96.39
2022-11-28T00:06:40.201Z,96.77
2022-11-28T00:09:08.506Z,97.05
2022-11-28T00:11:36.002Z,97.25
2022-11-28T00:14:03.357Z,97.14
2022-11-28T00:16:30.830Z,96.42
2022-11-28T00:19:01.203Z,98.02
2022-11-28T00:21:29.421Z,97.41
2022-11-28T00:23:57.794Z,97.57
2022-11-28T00:26:30.955Z,98.35
2022-11-28T00:29:00.371Z,98.31
2022-11-28T00:31:34.321Z,97.92
2022-11-28T00:34:02.140Z,98.36
2022-11-28T00:36:30.401Z,98.33
2022-11-28T00:38:57.724Z,97.98
2022-11-28T00:41:28.785Z,99.14
2022-11-28T00:43:57.026Z,98.19
2022-11-28T00:46:24.923Z,97.91
2022-11-28T00:48:53.188Z,96.47
2022-11-28T00:51:24.962Z,95.99
2022-11-28T00:53:55.274Z,95.74
2022-11-28T00:56:25.429Z,95.08
2022-11-28T00:58:52.940Z,94.40
2022-11-28T01:01:27.001Z,94.92
2022-11-28T01:03:56.934Z,94.29
2022-11-28T01:06:58.403Z,95.56
2022-11-28T01:09:26.009Z,95.45
2022-11-28T01:11:54.447Z,94.51
2022-11-28T01:14:23.999Z,94.59
2022-11-28T01:16:51.605Z,96.10
2022-11-28T01:19:19.943Z,95.80
2022-11-28T01:21:47.754Z,95.74
2022-11-28T01:24:15.333Z,95.41
2022-11-28T01:26:46.960Z,95.18
2022-11-28T01:29:14.925Z,95.60
2022-11-28T01:31:43.927Z,95.85
2022-11-28T01:34:11.351Z,96.55
2022-11-28T01:36:38.772Z,96.68
2022-11-28T01:39:06.523Z,96.74
2022-11-28T01:41:34.199Z,96.32
2022-11-28T01:44:04.710Z,96.63
2022-11-28T01:46:32.789Z,96.32
2022-11-28T01:49:29.808Z,95.24
2022-11-28T01:52:08.004Z,95.67
2022-11-28T01:54:41.990Z,95.24
2022-11-28T01:57:15.316Z,95.67
2022-11-28T01:59:49.088Z,96.76
2022-11-28T02:02:41.789Z,96.91
2022-11-28T02:05:09.419Z,96.09
2022-11-28T02:07:38.005Z,96.51
2022-11-28T02:10:09.003Z,96.34
2022-11-28T02:12:52.483Z,94.76
2022-11-28T02:15:37.622Z,94.61
2022-11-28T02:18:23.362Z,94.26
2022-11-28T02:21:06.167Z,94.58
2022-11-28T02:24:19.896Z,94.68
2022-11-28T02:26:50.116Z,94.90
2022-11-28T02:29:46.937Z,94.21
2022-11-28T02:32:40.644Z,94.88
2022-11-28T02:35:20.260Z,96.62
2022-11-28T02:38:03.177Z,96.72
2022-11-28T02:40:53.981Z,97.10
2022-11-28T02:43:21.270Z,97.13
2022-11-28T02:46:14.566Z,98.08
2022-11-28T02:49:00.002Z,98.52
2022-11-28T02:51:39.898Z,97.89
2022-11-28T02:54:12.229Z,98.41
2022-11-28T02:56:46.853Z,98.46
2022-11-28T02:59:40.638Z,99.06
2022-11-28T03:02:23.581Z,98.56
2022-11-28T03:05:20.734Z,99.32
2022-11-28T03:07:51.087Z,98.32
2022-11-28T03:10:37.857Z,98.35
2022-11-28T03:13:14.047Z,98.83
2022-11-28T03:15:59.705Z,98.56
2022-11-28T03:18:34.497Z,97.73
2022-11-28T03:21:22.620Z,98.03
2022-11-28T03:24:12.018Z,98.45
2022-11-28T03:26:56.833Z,97.99
2022-11-28T03:29:52.497Z,97.86
2022-11-28T03:32:29.682Z,99.70
2022-11-28T03:35:02.781Z,100.00
2022-11-28T03:37:35.675Z,100.00
2022-11-28T03:40:08.680Z,99.34
2022-11-28T03:42:42.607Z,97.20
2022-11-28T03:45:15.367Z,96.33
2022-11-28T03:47:46.334Z,95.99
2022-11-28T03:50:20.101Z,96.49
2022-11-28T03:52:55.997Z,97.23
2022-11-28T03:55:30.932Z,97.78
2022-11-28T03:58:06.140Z,98.11
2022-11-28T04:00:38.092Z,97.61
2022-11-28T04:03:20.014Z,97.53
2022-11-28T04:05:53.972Z,98.69
2022-11-28T04:08:32.352Z,97.52
2022-11-28T04:11:17.718Z,96.46
2022-11-28T04:13:51.858Z,95.78
2022-11-28T04:16:24.918Z,94.85
2022-11-28T04:19:01.610Z,93.63
2022-11-28T04:21:32.421Z,94.01
2022-11-28T04:24:05.095Z,94.13
2022-11-28T04:26:36.461Z,94.60
2022-11-28T04:29:08.058Z,95.21
2022-11-28T04:31:37.936Z,95.59
2022-11-28T04:34:09.950Z,95.74
2022-11-28T04:36:39.210Z,98.33
2022-11-28T04:39:12.925Z,97.83
2022-11-28T04:42:14.570Z,97.23
2022-11-28T04:44:52.215Z,96.96
2022-11-28T04:47:19.711Z,97.78
2022-11-28T04:49:47.163Z,97.22
2022-11-28T04:53:09.447Z,98.32
2022-11-28T04:55:48.963Z,100.00
2022-11-28T04:58:22.446Z,100.00
2022-11-28T05:00:53.690Z,100.00
2022-11-28T05:03:26.542Z,100.00
2022-11-28T05:05:54.151Z,100.00
2022-11-28T05:08:21.596Z,100.00
2022-11-28T05:10:49.405Z,100.00
2022-11-28T05:13:17.238Z,100.00
2022-11-28T05:15:44.665Z,99.53
2022-11-28T05:18:12.064Z,100.00
2022-11-28T05:20:40.341Z,99.79
2022-11-28T05:23:10.290Z,99.29
2022-11-28T05:25:39.976Z,100.00
2022-11-28T05:28:08.729Z,100.00
2022-11-28T05:30:36.067Z,100.00
2022-11-28T05:33:03.748Z,100.00
2022-11-28T05:35:31.077Z,100.00
2022-11-28T05:37:58.408Z,100.00
2022-11-28T05:40:25.761Z,100.00
2022-11-28T05:42:53.240Z,100.00
2022-11-28T05:45:20.608Z,100.00
2022-11-28T05:47:50.957Z,100.00
2022-11-28T05:50:18.277Z,100.00
2022-11-28T05:52:45.637Z,100.00
2022-11-28T05:55:13.072Z,100.00
2022-11-28T05:57:43.105Z,100.00
2022-11-28T06:00:11.092Z,100.00
2022-11-28T06:02:41.971Z,100.00
2022-11-28T06:05:34.621Z,99.77
2022-11-28T06:07:56.863Z,100.00
2022-11-28T06:10:24.467Z,99.40
2022-11-28T06:12:52.241Z,99.01
2022-11-28T06:15:19.669Z,97.69
2022-11-28T06:17:47.027Z,96.92
2022-11-28T06:20:14.514Z,96.53
2022-11-28T06:22:41.849Z,96.15
2022-11-28T06:25:09.178Z,96.77
2022-11-28T06:27:36.549Z,96.19
2022-11-28T06:30:05.439Z,97.02
2022-11-28T06:32:32.793Z,97.55
2022-11-28T06:35:00.234Z,98.00
2022-11-28T06:37:28.239Z,96.41
2022-11-28T06:39:55.652Z,96.75
2022-11-28T06:42:23.066Z,98.15
2022-11-28T06:44:50.390Z,98.47
2022-11-28T06:47:17.775Z,97.71
2022-11-28T06:49:45.407Z,97.42
2022-11-28T06:52:12.950Z,97.80
2022-11-28T06:54:40.258Z,97.73
2022-11-28T06:57:07.640Z,97.27
2022-11-28T06:59:35.002Z,97.06
2022-11-28T07:02:07.480Z,97.51
2022-11-28T07:04:35.620Z,97.34
2022-11-28T07:07:03.423Z,96.57
2022-11-28T07:09:30.833Z,96.76
2022-11-28T07:11:58.171Z,96.77
2022-11-28T07:14:25.655Z,97.68
2022-11-28T07:16:53.584Z,96.98
2022-11-28T07:19:23.072Z,97.88
2022-11-28T07:21:50.953Z,97.95
2022-11-28T07:24:18.896Z,98.18
2022-11-28T07:26:46.966Z,97.12
2022-11-28T07:29:16.798Z,97.20
2022-11-28T07:31:45.301Z,97.42
2022-11-28T07:34:12.806Z,98.02
2022-11-28T07:36:40.185Z,98.47
2022-11-28T07:39:08.865Z,96.60
2022-11-28T07:41:36.323Z,97.09
2022-11-28T07:44:05.069Z,96.51
2022-11-28T07:46:33.361Z,93.93
2022-11-28T07:49:01.833Z,93.00
2022-11-28T07:51:32.830Z,92.43
2022-11-28T07:54:01.179Z,91.05
2022-11-28T07:57:04.096Z,91.13
2022-11-28T07:59:18.970Z,90.94
2022-11-28T08:01:46.477Z,90.67
2022-11-28T08:04:13.944Z,91.22
2022-11-28T08:06:43.384Z,90.63
2022-11-28T08:09:17.149Z,91.08
2022-11-28T08:11:44.590Z,92.05
2022-11-28T08:14:14.876Z,90.89
2022-11-28T08:16:45.140Z,92.33
2022-11-28T08:19:13.204Z,91.96
2022-11-28T08:21:40.915Z,91.21
2022-11-28T08:24:09.075Z,90.93
2022-11-28T08:26:37.435Z,91.07
2022-11-28T08:29:05.912Z,92.49
2022-11-28T08:31:38.308Z,91.14
2022-11-28T08:34:09.376Z,91.15
2022-11-28T08:36:37.426Z,92.94
2022-11-28T08:41:57.314Z,92.40
2022-11-28T08:44:26.274Z,92.43
2022-11-28T08:46:54.061Z,92.83
2022-11-28T08:49:21.399Z,93.78
2022-11-28T08:51:48.959Z,94.00
2022-11-28T08:54:16.428Z,94.38
2022-11-28T08:56:45.449Z,94.73
2022-11-28T08:59:14.899Z,93.62
2022-11-28T09:01:42.372Z,91.23
2022-11-28T09:04:09.863Z,89.54
2022-11-28T09:06:39.644Z,87.00
2022-11-28T09:09:07.176Z,86.26
2022-11-28T09:11:35.198Z,86.78
2022-11-28T09:14:04.682Z,86.38
2022-11-28T09:16:33.004Z,86.95
2022-11-28T09:19:00.432Z,86.79
2022-11-28T09:21:28.901Z,88.34
2022-11-28T09:23:58.985Z,88.66
2022-11-28T09:26:26.753Z,86.27
2022-11-28T09:28:55.665Z,85.00
2022-11-28T09:31:23.434Z,84.08
2022-11-28T09:33:54.294Z,83.74
2022-11-28T09:36:24.995Z,83.10
2022-11-28T09:38:52.443Z,85.21
2022-11-28T09:41:37.942Z,87.33
2022-11-28T09:44:27.009Z,86.05
2022-11-28T09:46:58.158Z,84.88
2022-11-28T09:49:40.600Z,85.33
2022-11-28T09:52:08.239Z,85.35
2022-11-28T09:54:48.512Z,83.39
2022-11-28T09:57:23.477Z,83.87
2022-11-28T09:59:51.651Z,84.55
2022-11-28T10:02:32.489Z,84.62
2022-11-28T10:05:10.957Z,84.13
2022-11-28T10:07:56.825Z,83.64
2022-11-28T10:10:36.401Z,84.49
2022-11-28T10:13:12.331Z,85.02
2022-11-28T10:16:19.587Z,83.60
2022-11-28T10:18:52.740Z,85.83
2022-11-28T10:21:59.286Z,83.60
2022-11-28T10:24:54.006Z,83.82
2022-11-28T10:27:31.306Z,84.70
2022-11-28T10:30:04.568Z,84.71
2022-11-28T10:32:37.965Z,84.83
2022-11-28T10:35:33.946Z,85.51
2022-11-28T10:38:01.470Z,85.15
2022-11-28T10:40:39.511Z,84.38
2022-11-28T10:43:25.161Z,83.00
2022-11-28T10:45:59.919Z,81.30
2022-11-28T10:49:01.120Z,81.21
2022-11-28T10:51:48.165Z,80.48
2022-11-28T10:54:18.227Z,80.40
2022-11-28T10:57:01.324Z,80.57
2022-11-28T10:59:33.629Z,81.26
2022-11-28T11:02:18.304Z,80.73
2022-11-28T11:04:48.710Z,81.13
2022-11-28T11:07:30.969Z,80.53
2022-11-28T11:10:51.050Z,79.25
2022-11-28T11:13:28.626Z,78.40
2022-11-28T11:16:02.728Z,78.98
2022-11-28T11:18:34.535Z,79.38
2022-11-28T11:21:17.003Z,81.05
2022-11-28T11:23:45.801Z,81.57
2022-11-28T11:26:29.868Z,82.54
2022-11-28T11:28:57.529Z,79.95
2022-11-28T11:31:33.609Z,80.05
2022-11-28T11:34:16.506Z,80.43
2022-11-28T11:36:44.372Z,80.03
2022-11-28T11:39:11.960Z,80.25
2022-11-28T11:41:44.943Z,79.59
2022-11-28T11:44:16.514Z,80.51
2022-11-28T11:46:57.362Z,78.35
2022-11-28T11:49:41.701Z,80.14
2022-11-28T11:52:16.608Z,80.61
2022-11-28T11:55:12.297Z,81.62
2022-11-28T11:57:44.801Z,82.67
2022-11-28T12:00:20.838Z,83.74
2022-11-28T12:02:58.216Z,83.75
2022-11-28T12:06:13.338Z,84.80
2022-11-28T12:08:49.279Z,86.08
2022-11-28T12:11:31.529Z,84.93
2022-11-28T12:14:02.922Z,85.98
2022-11-28T12:20:26.221Z,84.74
2022-11-28T12:22:59.413Z,84.74
2022-11-28T12:25:46.785Z,84.61
2022-11-28T12:28:20.236Z,86.01
2022-11-28T12:31:03.075Z,85.87
2022-11-28T12:33:48.660Z,85.79
2022-11-28T12:36:35.160Z,85.88
2022-11-28T12:39:50.812Z,85.44
2022-11-28T12:42:48.496Z,85.63
2022-11-28T12:45:21.791Z,85.69
2022-11-28T12:48:13.992Z,85.15
2022-11-28T12:51:09.565Z,86.22
2022-11-28T12:53:36.867Z,86.28
2022-11-28T12:56:42.314Z,87.98
2022-11-28T12:59:20.338Z,87.75
2022-11-28T13:02:19.288Z,85.55
2022-11-28T13:04:58.229Z,87.06
2022-11-28T13:07:25.551Z,85.72
2022-11-28T13:10:02.638Z,86.26
2022-11-28T13:12:56.130Z,86.68
2022-11-28T13:15:50.929Z,87.03
2022-11-28T13:18:28.852Z,88.28
2022-11-28T13:21:12.485Z,88.32
2022-11-28T13:24:10.969Z,88.18
2022-11-28T13:26:52.192Z,89.67
2022-11-28T13:29:40.152Z,88.42
2022-11-28T13:32:28.931Z,88.32
2022-11-28T13:34:56.657Z,88.35
2022-11-28T13:40:59.705Z,89.40
2022-11-28T13:43:46.389Z,89.44
2022-11-28T13:46:14.548Z,87.85
2022-11-28T13:51:33.786Z,88.32
2022-11-28T13:54:19.941Z,87.83
2022-11-28T13:57:08.055Z,87.14
2022-11-28T13:59:36.750Z,86.42
2022-11-28T14:02:18.233Z,87.51
2022-11-28T14:04:48.206Z,87.74
2022-11-28T14:07:31.824Z,88.26
2022-11-28T14:10:18.473Z,87.82
2022-11-28T14:12:51.593Z,89.74
2022-11-28T14:15:21.952Z,88.86
2022-11-28T14:18:01.929Z,87.88
2022-11-28T14:20:39.111Z,89.29
2022-11-28T14:23:17.376Z,87.60
2022-11-28T14:25:50.529Z,85.84
2022-11-28T14:28:26.664Z,85.90
2022-11-28T14:31:21.541Z,86.60
2022-11-28T14:33:49.190Z,84.84
2022-11-28T14:36:43.749Z,85.59
2022-11-28T14:39:19.626Z,84.84
2022-11-28T14:42:05.485Z,83.64
2022-11-28T14:44:54.717Z,84.57
2022-11-28T14:47:42.966Z,83.78
2022-11-28T14:50:10.593Z,83.89
2022-11-28T14:52:48.654Z,83.66
2022-11-28T14:55:22.092Z,83.51
2022-11-28T14:58:04.528Z,83.08
2022-11-28T15:00:44.140Z,83.73
2022-11-28T15:03:39.055Z,83.03
2022-11-28T15:06:38.258Z,83.40
2022-11-28T15:09:25.879Z,83.47
2022-11-28T15:12:02.480Z,83.32
2022-11-28T15:14:33.282Z,82.86
2022-11-28T15:17:05.567Z,82.41
2022-11-28T15:19:48.266Z,83.40
2022-11-28T15:22:39.810Z,84.53
2022-11-28T15:25:27.167Z,85.82
2022-11-28T15:27:55.492Z,86.50
2022-11-28T15:30:26.923Z,85.64
2022-11-28T15:33:05.680Z,85.84
2022-11-28T15:35:33.909Z,86.49
2022-11-28T15:38:01.863Z,86.84
2022-11-28T15:40:32.491Z,87.07
2022-11-28T15:43:06.645Z,86.15
2022-11-28T15:45:37.007Z,86.64
2022-11-28T15:48:06.598Z,87.35
2022-11-28T15:50:34.513Z,88.62
2022-11-28T15:53:15.461Z,88.85
2022-11-28T15:55:44.286Z,88.86
2022-11-28T15:58:17.799Z,89.83
2022-11-28T16:00:53.370Z,90.28
2022-11-28T16:03:24.957Z,90.57
2022-11-28T16:05:54.745Z,91.53
2022-11-28T16:08:50.731Z,92.52
2022-11-28T16:11:21.086Z,92.30
2022-11-28T16:13:49.228Z,92.67
2022-11-28T16:16:21.270Z,92.11
2022-11-28T16:18:57.314Z,92.76
2022-11-28T16:22:04.084Z,92.52
2022-11-28T16:24:42.672Z,92.72
2022-11-28T16:27:26.928Z,92.44
2022-11-28T16:29:54.354Z,92.81
2022-11-28T16:32:36.516Z,91.38
2022-11-28T16:35:04.877Z,92.89
2022-11-28T16:37:32.957Z,94.34
2022-11-28T16:40:14.645Z,95.31
2022-11-28T16:42:42.272Z,94.34
2022-11-28T16:45:25.260Z,94.62
2022-11-28T16:48:14.881Z,95.00
2022-11-28T16:51:02.015Z,95.19
2022-11-28T16:53:41.676Z,95.99
2022-11-28T16:56:30.398Z,96.13
2022-11-28T16:59:24.521Z,98.12
2022-11-28T17:01:53.539Z,97.88
2022-11-28T17:04:25.138Z,97.54
2022-11-28T17:06:54.791Z,97.09
2022-11-28T17:09:22.193Z,95.89
2022-11-28T17:12:05.074Z,96.08
2022-11-28T17:14:32.742Z,94.98
2022-11-28T17:17:02.968Z,94.41
2022-11-28T17:19:30.465Z,94.15
2022-11-28T17:21:59.582Z,94.44
2022-11-28T17:24:33.174Z,96.12
2022-11-28T17:27:01.346Z,95.66
2022-11-28T17:29:29.271Z,97.10
2022-11-28T17:31:59.066Z,97.49
2022-11-28T17:34:31.438Z,97.30
2022-11-28T17:37:00.391Z,97.41
2022-11-28T17:39:29.107Z,97.20
2022-11-28T17:41:57.750Z,94.58
2022-11-28T17:44:28.032Z,94.81
2022-11-28T17:46:57.219Z,93.81
2022-11-28T17:49:25.178Z,93.65
2022-11-28T17:51:54.781Z,93.54
2022-11-28T17:54:24.417Z,94.12
2022-11-28T17:57:12.318Z,95.01
2022-11-28T17:59:39.659Z,95.55
2022-11-28T18:02:07.132Z,94.98
2022-11-28T18:04:37.444Z,94.33
2022-11-28T18:07:04.916Z,95.38
2022-11-28T18:09:32.648Z,93.10
2022-11-28T18:12:02.902Z,92.43
2022-11-28T18:14:36.636Z,92.72
2022-11-28T18:17:08.158Z,94.00
2022-11-28T18:19:35.599Z,94.79
2022-11-28T18:22:02.996Z,95.25
2022-11-28T18:24:30.396Z,95.35
2022-11-28T18:26:57.730Z,95.64
2022-11-28T18:29:25.400Z,96.03
2022-11-28T18:31:53.865Z,94.96
2022-11-28T18:34:21.247Z,95.32
2022-11-28T18:36:52.121Z,95.01
2022-11-28T18:39:19.936Z,96.08
2022-11-28T18:41:50.260Z,96.23
2022-11-28T18:44:19.018Z,95.53
2022-11-28T18:46:46.339Z,94.33
2022-11-28T18:49:15.217Z,93.96
2022-11-28T18:51:42.805Z,93.26
2022-11-28T18:54:10.230Z,93.15
2022-11-28T18:56:38.143Z,94.57
2022-11-28T18:59:06.039Z,94.93
2022-11-28T19:01:34.879Z,93.59
2022-11-28T19:04:11.154Z,94.28
2022-11-28T19:06:40.474Z,93.39
2022-11-28T19:09:11.520Z,91.54
2022-11-28T19:11:40.929Z,89.73
2022-11-28T19:14:08.849Z,88.68
2022-11-28T19:16:37.807Z,89.80
2022-11-28T19:19:06.126Z,91.13
2022-11-28T19:21:35.641Z,92.26
2022-11-28T19:24:03.237Z,92.25
2022-11-28T19:26:31.512Z,92.06
2022-11-28T19:29:02.101Z,91.67
2022-11-28T19:31:31.899Z,92.75
2022-11-28T19:34:05.051Z,93.56
2022-11-28T19:36:39.300Z,94.88
2022-11-28T19:39:17.069Z,94.71
2022-11-28T19:41:45.296Z,94.09
2022-11-28T19:44:14.486Z,94.76
2022-11-28T19:46:42.201Z,95.80
2022-11-28T19:49:16.899Z,96.14
2022-11-28T19:51:44.700Z,96.16
2022-11-28T19:54:12.304Z,97.85
2022-11-28T19:56:39.927Z,97.48
2022-11-28T19:59:09.396Z,97.56
2022-11-28T20:01:38.818Z,97.33
2022-11-28T20:04:06.313Z,98.19
2022-11-28T20:06:34.553Z,98.70
2022-11-28T20:09:08.993Z,99.37
2022-11-28T20:11:42.962Z,99.92
2022-11-28T20:14:16.854Z,99.73
2022-11-28T20:16:44.973Z,100.00
2022-11-28T20:19:14.913Z,100.00
2022-11-28T20:21:45.020Z,100.00
2022-11-28T20:24:12.734Z,100.00
2022-11-28T20:26:42.717Z,100.00
2022-11-28T20:29:15.863Z,100.00
2022-11-28T20:31:47.645Z,100.00
2022-11-28T20:34:18.918Z,100.00
2022-11-28T20:36:53.744Z,100.00
2022-11-28T20:39:21.339Z,100.00
2022-11-28T20:41:48.704Z,100.00
2022-11-28T20:44:17.643Z,100.00
2022-11-28T20:46:46.387Z,100.00
2022-11-28T20:49:15.276Z,100.00
2022-11-28T20:51:42.912Z,100.00
2022-11-28T20:54:12.317Z,100.00
2022-11-28T20:57:05.494Z,100.00
2022-11-28T20:59:27.512Z,100.00
2022-11-28T21:01:54.953Z,100.00
2022-11-28T21:04:22.348Z,100.00
2022-11-28T21:06:49.781Z,100.00
2022-11-28T21:09:20.093Z,100.00
2022-11-28T21:11:58.011Z,100.00
2022-11-28T21:14:29.866Z,100.00
2022-11-28T21:16:58.210Z,100.00
2022-11-28T21:19:25.669Z,100.00
2022-11-28T21:21:53.285Z,100.00
2022-11-28T21:24:23.321Z,100.00
2022-11-28T21:26:54.068Z,99.97
2022-11-28T21:29:23.437Z,99.25
2022-11-28T21:31:51.041Z,99.04
2022-11-28T21:34:19.552Z,98.86
2022-11-28T21:36:47.263Z,98.53
2022-11-28T21:39:20.122Z,98.62
2022-11-28T21:41:48.099Z,98.70
2022-11-28T21:44:15.500Z,98.40
2022-11-28T21:46:43.225Z,98.13
2022-11-28T21:49:10.633Z,98.75
2022-11-28T21:51:40.703Z,97.87
2022-11-28T21:54:12.021Z,97.93
2022-11-28T21:56:39.524Z,98.20
2022-11-28T21:59:06.988Z,97.65
2022-11-28T22:01:34.804Z,97.87
2022-11-28T22:04:03.251Z,96.90
2022-11-28T22:06:32.162Z,96.13
2022-11-28T22:09:08.380Z,96.36
2022-11-28T22:11:38.153Z,96.02
2022-11-28T22:14:05.794Z,95.58
2022-11-28T22:16:33.477Z,93.02
2022-11-28T22:19:01.209Z,92.94
2022-11-28T22:21:51.884Z,93.87
2022-11-28T22:24:16.257Z,92.77
2022-11-28T22:26:44.519Z,93.12
2022-11-28T22:29:13.368Z,93.25
2022-11-28T22:31:43.785Z,93.98
2022-11-28T22:34:12.265Z,93.74
2022-11-28T22:36:39.750Z,94.17
2022-11-28T22:39:13.066Z,94.43
2022-11-28T22:41:40.326Z,94.43
2022-11-28T22:44:10.636Z,95.22
2022-11-28T22:46:38.197Z,96.08
2022-11-28T22:49:07.038Z,95.34
2022-11-28T22:51:35.834Z,95.88
2022-11-28T22:54:04.102Z,96.40
2022-11-28T22:56:33.677Z,96.94
2022-11-28T22:59:01.637Z,97.52
2022-11-28T23:01:30.430Z,97.50
2022-11-28T23:03:58.888Z,97.44
2022-11-28T23:06:32.384Z,97.61
2022-11-28T23:09:02.282Z,98.48
2022-11-28T23:11:32.946Z,97.88
2022-11-28T23:14:02.218Z,98.11
2022-11-28T23:16:40.593Z,99.08
2022-11-28T23:19:12.874Z,98.57
2022-11-28T23:21:41.628Z,99.02
2022-11-28T23:24:14.158Z,99.65
2022-11-28T23:26:42.086Z,99.55
2022-11-28T23:29:11.330Z,99.56
2022-11-28T23:31:40.940Z,98.83
2022-11-28T23:34:10.131Z,99.62
2022-11-28T23:36:42.914Z,99.30
2022-11-28T23:39:15.016Z,100.00
2022-11-28T23:41:43.480Z,100.00
2022-11-28T23:44:15.173Z,100.00
2022-11-28T23:46:43.531Z,100.00
2022-11-28T23:49:11.930Z,100.00
2022-11-28T23:51:42.646Z,99.76
2022-11-28T23:54:11.348Z,100.00
2022-11-28T23:56:40.383Z,99.78
2022-11-28T23:59:10.067Z,99.73
